createdAt,value
2023-04-11T00:02:17.777Z,7.68
2023-04-11T00:04:45.640Z,6.05
2023-04-11T00:07:13.402Z,5.32
2023-04-11T00:09:41.098Z,7.32
2023-04-11T00:12:08.805Z,5.55
2023-04-11T00:14:36.524Z,5.57
2023-04-11T00:17:06.097Z,5.80
2023-04-11T00:19:33.835Z,5.35
2023-04-11T00:22:01.519Z,5.18
2023-04-11T00:24:29.201Z,5.90
2023-04-11T00:26:58.326Z,6.10
2023-04-11T00:29:25.987Z,6.03
2023-04-11T00:31:55.428Z,4.28
2023-04-11T00:34:24.566Z,2.85
2023-04-11T00:36:52.300Z,4.15
2023-04-11T00:39:21.273Z,2.83
2023-04-11T00:41:49.276Z,2.40
2023-04-11T00:44:17.081Z,4.07
2023-04-11T00:46:46.162Z,3.23
2023-04-11T00:49:14.243Z,5.25
2023-04-11T00:51:43.376Z,4.20
2023-04-11T00:54:12.133Z,3.90
2023-04-11T00:56:39.975Z,5.10
2023-04-11T00:59:07.644Z,4.53
2023-04-11T01:01:36.341Z,6.03
2023-04-11T01:04:04.716Z,7.32
2023-04-11T01:06:33.669Z,4.07
2023-04-11T01:09:04.836Z,8.20
2023-04-11T01:11:33.489Z,4.72
2023-04-11T01:14:01.210Z,6.43
2023-04-11T01:16:28.899Z,5.72
2023-04-11T01:18:56.817Z,3.20
2023-04-11T01:21:26.129Z,5.03
2023-04-11T01:23:56.442Z,7.80
2023-04-11T01:26:24.113Z,9.77
2023-04-11T01:28:52.488Z,10.05
2023-04-11T01:31:20.253Z,8.15
2023-04-11T01:33:48.316Z,9.43
2023-04-11T01:36:15.960Z,11.27
2023-04-11T01:38:43.743Z,13.55
2023-04-11T01:41:13.214Z,12.50
2023-04-11T01:43:41.031Z,11.15
2023-04-11T01:46:09.085Z,11.30
2023-04-11T01:48:36.791Z,13.82
2023-04-11T01:51:04.938Z,15.70
2023-04-11T01:53:32.754Z,13.35
2023-04-11T01:56:00.467Z,18.23
2023-04-11T01:58:29.617Z,16.77
2023-04-11T02:00:57.293Z,15.70
2023-04-11T02:03:25.073Z,15.90
2023-04-11T02:05:52.916Z,16.25
2023-04-11T02:08:20.635Z,16.92
2023-04-11T02:10:48.387Z,18.27
2023-04-11T02:13:16.058Z,17.20
2023-04-11T02:15:45.180Z,15.77
2023-04-11T02:18:13.083Z,18.75
2023-04-11T02:20:41.514Z,18.45
2023-04-11T02:23:09.285Z,16.90
2023-04-11T02:25:37.045Z,17.63
2023-04-11T02:28:07.425Z,18.55
2023-04-11T02:30:35.903Z,23.90
2023-04-11T02:33:05.121Z,16.50
2023-04-11T02:35:32.874Z,17.52
2023-04-11T02:38:00.745Z,18.77
2023-04-11T02:40:28.856Z,17.20
2023-04-11T02:42:56.479Z,19.77
2023-04-11T02:45:24.143Z,15.05
2023-04-11T02:47:51.865Z,19.27
2023-04-11T02:50:21.107Z,16.02
2023-04-11T02:52:49.663Z,15.95
2023-04-11T02:55:17.414Z,18.13
2023-04-11T02:57:45.073Z,14.35
2023-04-11T03:00:13.738Z,15.23
2023-04-11T03:02:41.759Z,14.10
2023-04-11T03:05:10.454Z,12.80
2023-04-11T03:07:40.617Z,10.38
2023-04-11T03:10:09.620Z,12.47
2023-04-11T03:12:37.358Z,11.15
2023-04-11T03:15:05.763Z,14.20
2023-04-11T03:17:34.369Z,13.27
2023-04-11T03:20:02.106Z,17.65
2023-04-11T03:22:29.800Z,14.75
2023-04-11T03:24:58.835Z,12.30
2023-04-11T03:27:27.121Z,10.85
2023-04-11T03:29:54.920Z,11.57
2023-04-11T03:32:22.718Z,13.48
2023-04-11T03:34:51.785Z,9.90
2023-04-11T03:37:19.545Z,11.02
2023-04-11T03:39:47.196Z,9.98
2023-04-11T03:42:16.293Z,9.90
2023-04-11T03:44:44.026Z,8.50
2023-04-11T03:47:11.757Z,9.60
2023-04-11T03:49:39.620Z,8.60
2023-04-11T03:52:07.398Z,9.70
2023-04-11T03:54:35.194Z,10.63
2023-04-11T03:57:02.859Z,9.73
2023-04-11T03:59:31.995Z,7.47
2023-04-11T04:01:59.698Z,6.35
2023-04-11T04:04:27.566Z,7.75
2023-04-11T04:06:56.781Z,8.55
2023-04-11T04:09:24.689Z,5.65
2023-04-11T04:11:52.365Z,7.90
2023-04-11T04:14:20.399Z,5.82
2023-04-11T04:16:49.549Z,10.25
2023-04-11T04:19:17.237Z,7.88
2023-04-11T04:21:45.893Z,6.97
2023-04-11T04:24:13.602Z,9.07
2023-04-11T04:26:41.300Z,6.78
2023-04-11T04:29:10.272Z,4.57
2023-04-11T04:31:38.724Z,7.07
2023-04-11T04:34:09.567Z,7.82
2023-04-11T04:36:46.205Z,9.88
2023-04-11T04:39:17.457Z,8.57
2023-04-11T04:41:46.432Z,7.65
2023-04-11T04:44:15.967Z,6.57
2023-04-11T04:46:43.737Z,7.65
2023-04-11T04:49:12.777Z,5.35
2023-04-11T04:51:41.228Z,5.77
2023-04-11T04:54:08.919Z,7.50
2023-04-11T04:56:36.606Z,8.43
2023-04-11T04:59:04.400Z,5.07
2023-04-11T05:01:33.010Z,6.97
2023-04-11T05:04:01.945Z,8.68
2023-04-11T05:06:32.586Z,7.77
2023-04-11T05:09:03.764Z,5.83
2023-04-11T05:11:31.459Z,6.78
2023-04-11T05:13:59.117Z,5.97
2023-04-11T05:16:26.831Z,5.25
2023-04-11T05:18:54.454Z,5.18
2023-04-11T05:21:22.312Z,5.25
2023-04-11T05:23:51.397Z,6.77
2023-04-11T05:26:19.042Z,7.07
2023-04-11T05:28:47.007Z,5.80
2023-04-11T05:31:14.786Z,4.32
2023-04-11T05:33:43.203Z,9.50
2023-04-11T05:36:13.950Z,6.30
2023-04-11T05:38:41.885Z,8.73
2023-04-11T05:41:11.548Z,4.50
2023-04-11T05:43:39.410Z,6.47
2023-04-11T05:46:08.895Z,4.38
2023-04-11T05:48:38.157Z,5.72
2023-04-11T05:51:06.159Z,5.95
2023-04-11T05:53:33.816Z,5.10
2023-04-11T05:56:01.830Z,6.38
2023-04-11T05:58:30.994Z,5.38
2023-04-11T06:00:59.471Z,6.63
2023-04-11T06:03:27.587Z,7.13
2023-04-11T06:05:55.551Z,6.88
2023-04-11T06:08:23.355Z,3.83
2023-04-11T06:10:51.062Z,6.00
2023-04-11T06:13:18.782Z,5.30
2023-04-11T06:15:47.917Z,6.20
2023-04-11T06:18:15.688Z,6.63
2023-04-11T06:20:43.310Z,5.38
2023-04-11T06:23:11.062Z,6.37
2023-04-11T06:25:38.770Z,7.32
2023-04-11T06:28:06.549Z,5.18
2023-04-11T06:30:34.223Z,5.55
2023-04-11T06:33:03.456Z,6.35
2023-04-11T06:35:31.269Z,6.95
2023-04-11T06:37:59.045Z,4.03
2023-04-11T06:40:26.735Z,6.30
2023-04-11T06:42:55.297Z,4.25
2023-04-11T06:45:23.068Z,6.40
2023-04-11T06:47:51.078Z,5.95
2023-04-11T06:50:20.355Z,5.43
2023-04-11T06:52:48.102Z,5.25
2023-04-11T06:55:16.136Z,5.78
2023-04-11T06:57:44.674Z,6.13
2023-04-11T07:00:13.585Z,6.60
2023-04-11T07:02:41.904Z,4.78
2023-04-11T07:05:10.318Z,6.40
2023-04-11T07:07:39.765Z,6.15
2023-04-11T07:10:08.642Z,7.78
2023-04-11T07:12:36.347Z,6.70
2023-04-11T07:15:04.764Z,7.15
2023-04-11T07:17:32.470Z,6.30
2023-04-11T07:20:00.196Z,6.10
2023-04-11T07:22:29.262Z,5.50
2023-04-11T07:24:58.394Z,4.93
2023-04-11T07:27:26.585Z,6.60
2023-04-11T07:29:54.279Z,7.32
2023-04-11T07:32:21.995Z,4.20
2023-04-11T07:34:49.766Z,7.05
2023-04-11T07:37:18.195Z,4.03
2023-04-11T07:39:45.911Z,6.78
2023-04-11T07:42:14.994Z,5.75
2023-04-11T07:44:42.692Z,5.55
2023-04-11T07:47:10.387Z,6.20
2023-04-11T07:49:38.096Z,5.53
2023-04-11T07:52:06.016Z,6.03
2023-04-11T07:54:34.154Z,9.05
2023-04-11T07:57:02.488Z,4.97
2023-04-11T07:59:31.756Z,5.30
2023-04-11T08:02:01.104Z,5.97
2023-04-11T08:04:32.525Z,8.18
2023-04-11T08:07:00.508Z,6.70
2023-04-11T08:09:28.618Z,5.38
2023-04-11T08:11:57.015Z,5.38
2023-04-11T08:14:24.778Z,4.25
2023-04-11T08:16:54.454Z,6.05
2023-04-11T08:19:22.357Z,6.53
2023-04-11T08:21:50.044Z,6.53
2023-04-11T08:24:17.846Z,6.23
2023-04-11T08:26:45.617Z,6.35
2023-04-11T08:29:13.404Z,4.97
2023-04-11T08:31:43.510Z,5.30
2023-04-11T08:34:12.790Z,4.17
2023-04-11T08:36:41.403Z,5.67
2023-04-11T08:39:09.076Z,4.13
2023-04-11T08:41:37.171Z,6.37
2023-04-11T08:44:05.630Z,3.17
2023-04-11T08:46:34.193Z,6.57
2023-04-11T08:49:02.068Z,5.90
2023-04-11T08:51:31.557Z,3.40
2023-04-11T08:54:02.225Z,5.00
2023-04-11T08:56:29.929Z,5.70
2023-04-11T08:58:57.604Z,4.00
2023-04-11T09:01:27.269Z,4.20
2023-04-11T09:03:55.359Z,6.57
2023-04-11T09:06:23.505Z,4.03
2023-04-11T09:08:52.650Z,4.53
2023-04-11T09:11:20.778Z,5.22
2023-04-11T09:13:48.593Z,4.47
2023-04-11T09:16:16.539Z,3.85
2023-04-11T09:18:46.252Z,4.60
2023-04-11T09:21:15.295Z,4.07
2023-04-11T09:23:43.379Z,5.40
2023-04-11T09:26:13.592Z,3.25
2023-04-11T09:28:42.959Z,5.05
2023-04-11T09:31:12.951Z,4.60
2023-04-11T09:33:41.264Z,3.80
2023-04-11T09:36:20.142Z,5.10
2023-04-11T09:38:47.931Z,5.90
2023-04-11T09:41:17.281Z,4.65
2023-04-11T09:43:56.617Z,4.72
2023-04-11T09:46:25.366Z,3.92
2023-04-11T09:48:54.647Z,5.53
2023-04-11T09:53:53.383Z,4.95
2023-04-11T09:56:24.126Z,3.60
2023-04-11T09:58:52.401Z,3.83
2023-04-11T10:01:20.629Z,3.50
2023-04-11T10:03:51.084Z,5.68
2023-04-11T10:06:24.212Z,3.50
2023-04-11T10:08:52.741Z,4.50
2023-04-11T10:11:24.276Z,3.17
2023-04-11T10:13:52.085Z,4.18
2023-04-11T10:16:22.309Z,2.88
2023-04-11T10:19:23.634Z,3.67
2023-04-11T10:21:51.627Z,2.60
2023-04-11T10:24:21.089Z,3.10
2023-04-11T10:26:52.095Z,3.30
2023-04-11T10:29:51.369Z,3.55
2023-04-11T10:32:24.712Z,4.85
2023-04-11T10:35:20.689Z,4.60
2023-04-11T10:37:49.175Z,2.45
2023-04-11T10:40:19.666Z,3.90
2023-04-11T10:42:49.373Z,3.40
2023-04-11T10:45:27.008Z,3.00
2023-04-11T10:48:13.168Z,3.45
2023-04-11T10:50:42.517Z,2.67
2023-04-11T10:53:14.222Z,2.65
2023-04-11T10:55:47.273Z,4.33
2023-04-11T10:58:19.712Z,4.03
2023-04-11T11:01:25.680Z,4.40
2023-04-11T11:04:00.518Z,4.28
2023-04-11T11:06:29.029Z,4.38
2023-04-11T11:08:57.880Z,4.43
2023-04-11T11:11:25.623Z,4.88
2023-04-11T11:13:56.597Z,3.70
2023-04-11T11:16:25.890Z,3.63
2023-04-11T11:18:55.020Z,2.90
2023-04-11T11:21:28.334Z,4.05
2023-04-11T11:23:58.288Z,3.35
2023-04-11T11:26:39.341Z,4.35
2023-04-11T11:29:09.086Z,3.17
2023-04-11T11:31:39.259Z,3.10
2023-04-11T11:34:22.319Z,3.38
2023-04-11T11:36:51.255Z,2.70
2023-04-11T11:39:21.144Z,3.22
2023-04-11T11:41:50.172Z,2.33
2023-04-11T11:44:26.713Z,2.10
2023-04-11T11:47:04.768Z,3.03
2023-04-11T11:49:45.558Z,3.30
2023-04-11T11:52:13.822Z,2.53
2023-04-11T11:54:45.553Z,2.03
2023-04-11T11:57:13.328Z,4.63
2023-04-11T11:59:42.675Z,3.08
2023-04-11T12:02:10.611Z,2.55
2023-04-11T12:04:38.528Z,2.95
2023-04-11T12:07:11.238Z,2.53
2023-04-11T12:09:39.807Z,5.53
2023-04-11T12:12:10.161Z,3.33
2023-04-11T12:14:37.816Z,2.40
2023-04-11T12:17:09.595Z,2.63
2023-04-11T12:19:37.298Z,3.22
2023-04-11T12:22:05.057Z,3.50
2023-04-11T12:24:32.767Z,3.67
2023-04-11T12:29:48.103Z,3.47
2023-04-11T12:32:17.168Z,3.83
2023-04-11T12:34:44.921Z,2.45
2023-04-11T12:37:12.609Z,4.10
2023-04-11T12:39:40.318Z,2.28
2023-04-11T12:42:08.987Z,3.05
2023-04-11T12:44:37.652Z,1.77
2023-04-11T12:47:05.592Z,2.88
2023-04-11T12:49:34.661Z,3.67
2023-04-11T12:52:02.866Z,2.63
2023-04-11T12:54:30.519Z,3.80
2023-04-11T12:56:58.354Z,2.88
2023-04-11T12:59:26.724Z,2.20
2023-04-11T13:01:54.412Z,2.50
2023-04-11T13:04:22.492Z,3.47
2023-04-11T13:06:52.377Z,3.17
2023-04-11T13:09:20.047Z,3.05
2023-04-11T13:11:47.690Z,3.83
2023-04-11T13:14:15.432Z,2.45
2023-04-11T13:16:45.743Z,4.03
2023-04-11T13:19:13.520Z,2.53
2023-04-11T13:21:41.152Z,3.45
2023-04-11T13:24:10.284Z,4.10
2023-04-11T13:26:39.336Z,2.22
2023-04-11T13:29:07.691Z,3.00
2023-04-11T13:31:35.704Z,3.42
2023-04-11T13:34:03.523Z,1.98
2023-04-11T13:36:32.288Z,2.92
2023-04-11T13:39:00.192Z,2.42
2023-04-11T13:41:29.407Z,3.28
2023-04-11T13:43:57.082Z,3.00
2023-04-11T13:46:24.736Z,4.53
2023-04-11T13:48:52.948Z,2.05
2023-04-11T13:51:20.691Z,3.17
2023-04-11T13:53:48.352Z,3.17
2023-04-11T13:56:16.085Z,3.42
2023-04-11T13:58:45.405Z,3.40
2023-04-11T14:01:13.133Z,4.77
2023-04-11T14:03:42.929Z,2.50
2023-04-11T14:06:10.910Z,2.33
2023-04-11T14:08:38.609Z,4.00
2023-04-11T14:11:06.597Z,4.00
2023-04-11T14:13:34.291Z,3.35
2023-04-11T14:16:08.586Z,4.20
2023-04-11T14:18:37.240Z,3.08
2023-04-11T14:21:06.084Z,3.55
2023-04-11T14:24:41.688Z,4.27
2023-04-11T14:27:09.567Z,3.50
2023-04-11T14:29:37.569Z,3.13
2023-04-11T14:32:06.900Z,3.03
2023-04-11T14:34:34.732Z,3.33
2023-04-11T14:37:02.471Z,3.90
2023-04-11T14:39:30.432Z,4.13
2023-04-11T14:42:01.941Z,4.70
2023-04-11T14:44:29.969Z,3.42
2023-04-11T14:46:57.762Z,4.32
2023-04-11T14:49:25.581Z,3.70
2023-04-11T14:51:53.229Z,4.20
2023-04-11T14:54:21.388Z,2.70
2023-04-11T14:56:49.171Z,1.75
2023-04-11T14:59:18.291Z,3.25
2023-04-11T15:01:46.423Z,2.42
2023-04-11T15:04:14.682Z,2.25
2023-04-11T15:06:42.476Z,2.92
2023-04-11T15:09:10.344Z,4.30
2023-04-11T15:11:37.999Z,1.98
2023-04-11T15:14:05.705Z,2.80
2023-04-11T15:16:34.831Z,3.97
2023-04-11T15:19:02.556Z,2.95
2023-04-11T15:21:30.271Z,3.70
2023-04-11T15:23:58.230Z,4.03
2023-04-11T15:26:26.334Z,4.15
2023-04-11T15:28:54.105Z,3.63
2023-04-11T15:31:26.468Z,3.13
2023-04-11T15:33:57.181Z,4.13
2023-04-11T15:36:25.051Z,3.30
2023-04-11T15:38:52.760Z,2.20
2023-04-11T15:41:20.800Z,2.40
2023-04-11T15:43:48.563Z,3.53
2023-04-11T15:46:16.328Z,2.55
2023-04-11T15:48:44.243Z,2.30
2023-04-11T15:51:21.409Z,2.70
2023-04-11T15:53:49.409Z,4.50
2023-04-11T15:56:18.926Z,2.40
2023-04-11T15:58:49.648Z,2.45
2023-04-11T16:01:22.837Z,3.65
2023-04-11T16:03:51.703Z,3.78
2023-04-11T16:06:21.113Z,3.30
2023-04-11T16:08:50.479Z,2.80
2023-04-11T16:11:19.819Z,2.80
2023-04-11T16:13:48.955Z,3.05
2023-04-11T16:16:16.661Z,1.80
2023-04-11T16:18:44.443Z,3.70
2023-04-11T16:21:16.456Z,2.90
2023-04-11T16:23:47.912Z,3.28
2023-04-11T16:26:16.131Z,3.45
2023-04-11T16:28:44.106Z,3.83
2023-04-11T16:31:14.150Z,3.30
2023-04-11T16:33:41.872Z,1.88
2023-04-11T16:36:12.996Z,4.27
2023-04-11T16:38:40.721Z,2.78
2023-04-11T16:41:09.757Z,2.13
2023-04-11T16:43:37.425Z,2.55
2023-04-11T16:46:07.398Z,4.18
2023-04-11T16:48:35.152Z,2.47
2023-04-11T16:51:02.973Z,2.83
2023-04-11T16:53:30.880Z,3.88
2023-04-11T16:55:58.584Z,1.88
2023-04-11T16:58:28.532Z,2.67
2023-04-11T17:00:56.342Z,2.88
2023-04-11T17:03:24.130Z,2.60
2023-04-11T17:05:52.094Z,2.30
2023-04-11T17:08:19.784Z,3.53
2023-04-11T17:10:47.454Z,1.92
2023-04-11T17:13:17.992Z,4.00
2023-04-11T17:15:47.153Z,7.07
2023-04-11T17:18:15.317Z,4.82
2023-04-11T17:20:43.758Z,3.17
2023-04-11T17:23:11.409Z,4.35
2023-04-11T17:25:39.099Z,2.85
2023-04-11T17:28:06.840Z,1.90
2023-04-11T17:30:35.406Z,4.90
2023-04-11T17:33:04.594Z,2.03
2023-04-11T17:35:32.345Z,2.60
2023-04-11T17:38:00.623Z,2.53
2023-04-11T17:40:28.489Z,3.10
2023-04-11T17:42:57.668Z,2.30
2023-04-11T17:45:25.458Z,4.43
2023-04-11T17:47:53.255Z,5.00
2023-04-11T17:50:22.468Z,2.92
2023-04-11T17:52:50.132Z,3.55
2023-04-11T17:55:18.874Z,3.20
2023-04-11T17:57:47.290Z,2.15
2023-04-11T18:00:19.876Z,1.92
2023-04-11T18:02:49.068Z,2.30
2023-04-11T18:05:23.895Z,2.15
2023-04-11T18:07:56.488Z,3.00
2023-04-11T18:10:25.823Z,1.83
2023-04-11T18:12:54.436Z,1.87
2023-04-11T18:15:22.703Z,1.95
2023-04-11T18:17:51.861Z,1.85
2023-04-11T18:20:19.882Z,2.45
2023-04-11T18:22:48.702Z,1.27
2023-04-11T18:25:17.882Z,2.60
2023-04-11T18:27:45.600Z,3.88
2023-04-11T18:30:14.647Z,2.63
2023-04-11T18:32:47.297Z,2.30
2023-04-11T18:35:16.120Z,4.72
2023-04-11T18:37:44.016Z,4.05
2023-04-11T18:40:13.987Z,8.83
2023-04-11T18:42:45.948Z,7.37
2023-04-11T18:45:15.026Z,8.70
2023-04-11T18:47:43.098Z,6.15
2023-04-11T18:50:11.373Z,6.57
2023-04-11T18:52:39.110Z,4.80
2023-04-11T18:55:07.962Z,5.37
2023-04-11T18:57:37.945Z,4.57
2023-04-11T19:00:17.496Z,4.72
2023-04-11T19:02:46.803Z,7.38
2023-04-11T19:05:15.600Z,14.73
2023-04-11T19:07:43.833Z,20.13
2023-04-11T19:10:12.736Z,21.40
2023-04-11T19:12:41.028Z,24.73
2023-04-11T19:15:11.637Z,20.50
2023-04-11T19:17:39.719Z,18.45
2023-04-11T19:20:12.315Z,17.33
2023-04-11T19:22:41.284Z,18.35
2023-04-11T19:25:11.076Z,16.00
2023-04-11T19:27:41.396Z,15.10
2023-04-11T19:30:15.724Z,15.55
2023-04-11T19:32:46.056Z,13.40
2023-04-11T19:35:14.304Z,12.88
2023-04-11T19:37:42.800Z,13.00
2023-04-11T19:40:12.344Z,10.43
2023-04-11T19:42:40.550Z,11.15
2023-04-11T19:45:11.885Z,8.57
2023-04-11T19:47:40.662Z,9.65
2023-04-11T19:50:11.604Z,6.43
2023-04-11T19:52:39.437Z,7.07
2023-04-11T19:55:09.369Z,6.15
2023-04-11T19:57:38.301Z,5.65
2023-04-11T20:00:11.817Z,8.35
2023-04-11T20:02:44.321Z,4.55
2023-04-11T20:05:12.422Z,4.13
2023-04-11T20:07:40.229Z,5.93
2023-04-11T20:10:09.014Z,4.07
2023-04-11T20:12:36.698Z,3.75
2023-04-11T20:15:04.606Z,3.05
2023-04-11T20:17:32.371Z,4.30
2023-04-11T20:20:06.076Z,4.85
2023-04-11T20:22:34.177Z,3.45
2023-04-11T20:25:02.005Z,3.28
2023-04-11T20:27:29.754Z,5.03
2023-04-11T20:29:57.869Z,4.63
2023-04-11T20:32:25.652Z,4.10
2023-04-11T20:34:53.443Z,3.72
2023-04-11T20:37:23.418Z,3.92
2023-04-11T20:39:51.702Z,7.13
2023-04-11T20:42:20.491Z,10.40
2023-04-11T20:44:48.450Z,10.82
2023-04-11T20:47:16.169Z,7.78
2023-04-11T20:49:45.613Z,7.53
2023-04-11T20:52:13.550Z,4.47
2023-04-11T20:54:42.598Z,4.90
2023-04-11T20:57:10.248Z,4.10
2023-04-11T20:59:39.123Z,5.07
2023-04-11T21:02:06.963Z,4.85
2023-04-11T21:04:34.890Z,4.50
2023-04-11T21:07:02.952Z,4.03
2023-04-11T21:09:30.806Z,4.20
2023-04-11T21:11:59.853Z,4.88
2023-04-11T21:14:27.538Z,3.53
2023-04-11T21:16:55.215Z,4.90
2023-04-11T21:19:22.918Z,3.45
2023-04-11T21:21:50.705Z,5.60
2023-04-11T21:24:18.374Z,4.60
2023-04-11T21:26:46.124Z,6.40
2023-04-11T21:29:15.212Z,7.30
2023-04-11T21:31:43.056Z,4.65
2023-04-11T21:34:10.835Z,6.85
2023-04-11T21:36:38.480Z,6.13
2023-04-11T21:39:08.709Z,7.18
2023-04-11T21:41:36.584Z,8.65
2023-04-11T21:44:04.412Z,6.80
2023-04-11T21:46:33.546Z,4.25
2023-04-11T21:49:01.766Z,5.15
2023-04-11T21:51:29.435Z,7.55
2023-04-11T21:53:57.317Z,5.63
2023-04-11T21:56:25.237Z,4.30
2023-04-11T21:58:52.966Z,6.13
2023-04-11T22:01:21.108Z,6.10
2023-04-11T22:03:52.502Z,5.30
2023-04-11T22:06:20.521Z,6.45
2023-04-11T22:08:50.534Z,4.38
2023-04-11T22:11:18.366Z,5.57
2023-04-11T22:13:46.746Z,5.77
2023-04-11T22:16:15.107Z,5.65
2023-04-11T22:18:49.737Z,6.70
2023-04-11T22:21:21.021Z,6.90
2023-04-11T22:23:54.366Z,6.32
2023-04-11T22:26:26.374Z,7.70
2023-04-11T22:28:55.396Z,7.30
2023-04-11T22:31:23.311Z,5.63
2023-04-11T22:33:51.127Z,6.47
2023-04-11T22:36:21.482Z,5.70
2023-04-11T22:38:49.300Z,4.60
2023-04-11T22:41:17.256Z,7.18
2023-04-11T22:43:45.333Z,5.55
2023-04-11T22:46:13.675Z,6.75
2023-04-11T22:48:41.960Z,5.63
2023-04-11T22:51:09.714Z,5.63
2023-04-11T22:53:42.306Z,5.93
2023-04-11T22:56:11.785Z,5.22
2023-04-11T22:58:39.499Z,5.80
2023-04-11T23:01:08.108Z,7.05
2023-04-11T23:03:35.890Z,5.60
2023-04-11T23:06:03.690Z,6.28
2023-04-11T23:08:32.526Z,5.82
2023-04-11T23:11:01.896Z,4.93
2023-04-11T23:13:29.923Z,6.53
2023-04-11T23:15:57.972Z,5.73
2023-04-11T23:18:25.756Z,6.30
2023-04-11T23:20:53.485Z,5.45
2023-04-11T23:23:21.243Z,6.22
2023-04-11T23:25:49.543Z,5.40
2023-04-11T23:28:18.635Z,6.22
2023-04-11T23:30:46.393Z,7.35
2023-04-11T23:33:15.449Z,5.70
2023-04-11T23:35:43.164Z,5.13
2023-04-11T23:38:11.586Z,6.35
2023-04-11T23:40:39.488Z,8.25
2023-04-11T23:43:07.210Z,6.25
2023-04-11T23:45:36.450Z,5.10
2023-04-11T23:48:04.378Z,5.90
2023-04-11T23:50:32.139Z,4.70
2023-04-11T23:52:59.797Z,7.85
2023-04-11T23:55:27.537Z,9.52
2023-04-11T23:57:55.281Z,9.70
